sensor_id;sensor_type;location;lat;lon;timestamp;P1;durP1;ratioP1;P2;durP2;ratioP2
6638;SDS011;3355;52.882;8.430;2022-07-01T00:00:10;6.80;;;6.20;;
6638;SDS011;3355;52.882;8.430;2022-07-01T00:02:39;7.47;;;5.80;;
6638;SDS011;3355;52.882;8.430;2022-07-01T00:05:06;6.43;;;5.73;;
6638;SDS011;3355;52.882;8.430;2022-07-01T00:07:33;6.27;;;5.67;;
6638;SDS011;3355;52.882;8.430;2022-07-01T00:10:00;6.13;;;5.63;;
6638;SDS011;3355;52.882;8.430;2022-07-01T00:12:26;7.10;;;6.27;;
6638;SDS011;3355;52.882;8.430;2022-07-01T00:14:53;6.53;;;5.93;;
6638;SDS011;3355;52.882;8.430;2022-07-01T00:17:20;5.33;;;4.83;;
6638;SDS011;3355;52.882;8.430;2022-07-01T00:19:48;6.70;;;5.67;;
6638;SDS011;3355;52.882;8.430;2022-07-01T00:22:15;7.03;;;6.43;;
6638;SDS011;3355;52.882;8.430;2022-07-01T00:24:42;7.97;;;6.93;;
6638;SDS011;3355;52.882;8.430;2022-07-01T00:27:10;7.70;;;7.10;;
6638;SDS011;3355;52.882;8.430;2022-07-01T00:29:37;6.10;;;5.50;;
6638;SDS011;3355;52.882;8.430;2022-07-01T00:32:05;6.83;;;6.20;;
6638;SDS011;3355;52.882;8.430;2022-07-01T00:34:32;8.27;;;7.57;;
6638;SDS011;3355;52.882;8.430;2022-07-01T00:37:00;7.03;;;6.33;;
6638;SDS011;3355;52.882;8.430;2022-07-01T00:39:27;6.47;;;5.87;;
6638;SDS011;3355;52.882;8.430;2022-07-01T00:41:57;7.53;;;6.63;;
6638;SDS011;3355;52.882;8.430;2022-07-01T00:44:25;6.37;;;5.77;;
6638;SDS011;3355;52.882;8.430;2022-07-01T00:46:52;6.27;;;5.23;;
6638;SDS011;3355;52.882;8.430;2022-07-01T00:49:20;6.20;;;5.60;;
6638;SDS011;3355;52.882;8.430;2022-07-01T00:51:47;6.63;;;5.50;;
6638;SDS011;3355;52.882;8.430;2022-07-01T00:54:15;7.40;;;5.40;;
6638;SDS011;3355;52.882;8.430;2022-07-01T00:56:42;6.20;;;5.20;;
6638;SDS011;3355;52.882;8.430;2022-07-01T00:59:09;8.90;;;6.03;;
6638;SDS011;3355;52.882;8.430;2022-07-01T01:01:36;6.47;;;5.00;;
6638;SDS011;3355;52.882;8.430;2022-07-01T01:04:03;7.53;;;6.17;;
6638;SDS011;3355;52.882;8.430;2022-07-01T01:06:30;5.87;;;4.43;;
6638;SDS011;3355;52.882;8.430;2022-07-01T01:08:57;6.53;;;5.87;;
6638;SDS011;3355;52.882;8.430;2022-07-01T01:11:25;6.90;;;4.90;;
6638;SDS011;3355;52.882;8.430;2022-07-01T01:13:52;6.43;;;5.40;;
6638;SDS011;3355;52.882;8.430;2022-07-01T01:16:19;7.47;;;5.77;;
6638;SDS011;3355;52.882;8.430;2022-07-01T01:18:47;5.90;;;4.47;;
6638;SDS011;3355;52.882;8.430;2022-07-01T01:21:16;6.50;;;4.40;;
6638;SDS011;3355;52.882;8.430;2022-07-01T01:23:43;5.37;;;4.70;;
6638;SDS011;3355;52.882;8.430;2022-07-01T01:26:14;5.00;;;4.40;;
6638;SDS011;3355;52.882;8.430;2022-07-01T01:28:42;5.97;;;4.20;;
6638;SDS011;3355;52.882;8.430;2022-07-01T01:31:09;5.60;;;4.63;;
6638;SDS011;3355;52.882;8.430;2022-07-01T01:33:37;8.70;;;4.67;;
6638;SDS011;3355;52.882;8.430;2022-07-01T01:36:04;6.03;;;4.23;;
6638;SDS011;3355;52.882;8.430;2022-07-01T01:38:33;5.00;;;3.60;;
6638;SDS011;3355;52.882;8.430;2022-07-01T01:41:00;6.03;;;3.30;;
6638;SDS011;3355;52.882;8.430;2022-07-01T01:43:27;5.10;;;3.67;;
6638;SDS011;3355;52.882;8.430;2022-07-01T01:45:54;5.50;;;3.43;;
6638;SDS011;3355;52.882;8.430;2022-07-01T01:48:21;5.53;;;3.67;;
6638;SDS011;3355;52.882;8.430;2022-07-01T01:50:48;6.60;;;3.90;;
6638;SDS011;3355;52.882;8.430;2022-07-01T01:53:15;5.97;;;4.10;;
6638;SDS011;3355;52.882;8.430;2022-07-01T01:55:43;6.23;;;3.27;;
6638;SDS011;3355;52.882;8.430;2022-07-01T01:58:10;4.73;;;3.37;;
6638;SDS011;3355;52.882;8.430;2022-07-01T02:00:37;4.90;;;3.37;;
6638;SDS011;3355;52.882;8.430;2022-07-01T02:03:03;7.63;;;4.17;;
6638;SDS011;3355;52.882;8.430;2022-07-01T02:05:30;4.50;;;3.10;;
6638;SDS011;3355;52.882;8.430;2022-07-01T02:07:58;5.33;;;3.27;;
6638;SDS011;3355;52.882;8.430;2022-07-01T02:10:25;5.43;;;3.07;;
6638;SDS011;3355;52.882;8.430;2022-07-01T02:12:53;6.37;;;3.23;;
6638;SDS011;3355;52.882;8.430;2022-07-01T02:15:20;8.30;;;2.63;;
6638;SDS011;3355;52.882;8.430;2022-07-01T02:17:47;5.37;;;3.60;;
6638;SDS011;3355;52.882;8.430;2022-07-01T02:20:14;5.93;;;2.07;;
6638;SDS011;3355;52.882;8.430;2022-07-01T02:22:41;6.23;;;2.70;;
6638;SDS011;3355;52.882;8.430;2022-07-01T02:25:08;7.03;;;2.53;;
6638;SDS011;3355;52.882;8.430;2022-07-01T02:27:35;3.60;;;1.70;;
6638;SDS011;3355;52.882;8.430;2022-07-01T02:30:04;3.80;;;2.63;;
6638;SDS011;3355;52.882;8.430;2022-07-01T02:32:32;5.57;;;2.00;;
6638;SDS011;3355;52.882;8.430;2022-07-01T02:34:59;3.73;;;2.37;;
6638;SDS011;3355;52.882;8.430;2022-07-01T02:37:26;4.23;;;2.00;;
6638;SDS011;3355;52.882;8.430;2022-07-01T02:39:52;5.00;;;3.00;;
6638;SDS011;3355;52.882;8.430;2022-07-01T02:42:19;6.73;;;2.20;;
6638;SDS011;3355;52.882;8.430;2022-07-01T02:44:51;5.00;;;2.53;;
6638;SDS011;3355;52.882;8.430;2022-07-01T02:47:19;3.80;;;1.93;;
6638;SDS011;3355;52.882;8.430;2022-07-01T02:49:46;4.70;;;1.53;;
6638;SDS011;3355;52.882;8.430;2022-07-01T02:52:13;5.03;;;1.63;;
6638;SDS011;3355;52.882;8.430;2022-07-01T02:54:40;5.33;;;2.03;;
6638;SDS011;3355;52.882;8.430;2022-07-01T02:57:07;5.20;;;3.10;;
6638;SDS011;3355;52.882;8.430;2022-07-01T02:59:35;6.53;;;1.77;;
6638;SDS011;3355;52.882;8.430;2022-07-01T03:02:01;3.77;;;1.50;;
6638;SDS011;3355;52.882;8.430;2022-07-01T03:04:30;4.47;;;2.30;;
6638;SDS011;3355;52.882;8.430;2022-07-01T03:06:57;4.40;;;1.23;;
6638;SDS011;3355;52.882;8.430;2022-07-01T03:09:24;4.13;;;1.90;;
6638;SDS011;3355;52.882;8.430;2022-07-01T03:11:51;7.00;;;1.63;;
6638;SDS011;3355;52.882;8.430;2022-07-01T03:14:18;4.10;;;2.33;;
6638;SDS011;3355;52.882;8.430;2022-07-01T03:16:45;3.77;;;2.10;;
6638;SDS011;3355;52.882;8.430;2022-07-01T03:19:13;4.07;;;2.10;;
6638;SDS011;3355;52.882;8.430;2022-07-01T03:21:41;4.37;;;2.70;;
6638;SDS011;3355;52.882;8.430;2022-07-01T03:24:08;3.67;;;2.07;;
6638;SDS011;3355;52.882;8.430;2022-07-01T03:26:35;3.90;;;2.00;;
6638;SDS011;3355;52.882;8.430;2022-07-01T03:29:02;3.70;;;1.77;;
6638;SDS011;3355;52.882;8.430;2022-07-01T03:31:28;5.37;;;1.80;;
6638;SDS011;3355;52.882;8.430;2022-07-01T03:33:56;3.83;;;1.93;;
6638;SDS011;3355;52.882;8.430;2022-07-01T03:36:23;6.50;;;2.00;;
6638;SDS011;3355;52.882;8.430;2022-07-01T03:38:51;5.40;;;1.90;;
6638;SDS011;3355;52.882;8.430;2022-07-01T03:41:18;4.20;;;1.60;;
6638;SDS011;3355;52.882;8.430;2022-07-01T03:43:45;3.83;;;2.30;;
6638;SDS011;3355;52.882;8.430;2022-07-01T03:46:12;4.53;;;2.87;;
6638;SDS011;3355;52.882;8.430;2022-07-01T03:48:38;3.80;;;2.97;;
6638;SDS011;3355;52.882;8.430;2022-07-01T03:51:05;4.47;;;1.93;;
6638;SDS011;3355;52.882;8.430;2022-07-01T03:53:32;4.23;;;2.13;;
6638;SDS011;3355;52.882;8.430;2022-07-01T03:56:18;4.40;;;2.30;;
6638;SDS011;3355;52.882;8.430;2022-07-01T03:58:45;4.70;;;2.33;;
6638;SDS011;3355;52.882;8.430;2022-07-01T04:01:12;4.67;;;2.80;;
6638;SDS011;3355;52.882;8.430;2022-07-01T04:03:39;4.67;;;2.37;;
6638;SDS011;3355;52.882;8.430;2022-07-01T04:06:06;4.53;;;2.37;;
6638;SDS011;3355;52.882;8.430;2022-07-01T04:08:34;4.30;;;2.90;;
6638;SDS011;3355;52.882;8.430;2022-07-01T04:11:01;3.90;;;2.20;;
6638;SDS011;3355;52.882;8.430;2022-07-01T04:13:29;4.03;;;2.40;;
6638;SDS011;3355;52.882;8.430;2022-07-01T04:15:56;4.50;;;2.83;;
6638;SDS011;3355;52.882;8.430;2022-07-01T04:18:24;4.47;;;2.13;;
6638;SDS011;3355;52.882;8.430;2022-07-01T04:20:51;3.60;;;2.33;;
6638;SDS011;3355;52.882;8.430;2022-07-01T04:23:31;3.70;;;2.90;;
6638;SDS011;3355;52.882;8.430;2022-07-01T04:25:58;3.83;;;1.93;;
6638;SDS011;3355;52.882;8.430;2022-07-01T04:28:25;4.60;;;2.23;;
6638;SDS011;3355;52.882;8.430;2022-07-01T04:30:53;5.30;;;2.53;;
6638;SDS011;3355;52.882;8.430;2022-07-01T04:33:20;3.70;;;2.00;;
6638;SDS011;3355;52.882;8.430;2022-07-01T04:35:47;6.27;;;2.60;;
6638;SDS011;3355;52.882;8.430;2022-07-01T04:38:14;3.70;;;2.73;;
6638;SDS011;3355;52.882;8.430;2022-07-01T04:40:40;11.57;;;2.30;;
6638;SDS011;3355;52.882;8.430;2022-07-01T04:43:27;4.90;;;2.80;;
6638;SDS011;3355;52.882;8.430;2022-07-01T04:45:55;9.67;;;2.20;;
6638;SDS011;3355;52.882;8.430;2022-07-01T04:48:21;6.23;;;3.50;;
6638;SDS011;3355;52.882;8.430;2022-07-01T04:50:48;3.77;;;2.80;;
6638;SDS011;3355;52.882;8.430;2022-07-01T04:53:15;3.97;;;2.83;;
6638;SDS011;3355;52.882;8.430;2022-07-01T04:55:42;5.60;;;3.03;;
6638;SDS011;3355;52.882;8.430;2022-07-01T04:58:08;5.33;;;3.40;;
6638;SDS011;3355;52.882;8.430;2022-07-01T05:00:35;5.80;;;3.80;;
6638;SDS011;3355;52.882;8.430;2022-07-01T05:03:04;6.73;;;4.00;;
6638;SDS011;3355;52.882;8.430;2022-07-01T05:05:30;5.03;;;3.87;;
6638;SDS011;3355;52.882;8.430;2022-07-01T05:07:57;6.40;;;4.60;;
6638;SDS011;3355;52.882;8.430;2022-07-01T05:10:24;8.40;;;5.00;;
6638;SDS011;3355;52.882;8.430;2022-07-01T05:12:53;7.77;;;5.40;;
6638;SDS011;3355;52.882;8.430;2022-07-01T05:15:20;8.87;;;6.53;;
6638;SDS011;3355;52.882;8.430;2022-07-01T05:17:47;7.20;;;6.30;;
6638;SDS011;3355;52.882;8.430;2022-07-01T05:20:32;8.90;;;8.00;;
6638;SDS011;3355;52.882;8.430;2022-07-01T05:23:16;8.50;;;7.07;;
6638;SDS011;3355;52.882;8.430;2022-07-01T05:25:43;8.07;;;7.27;;
6638;SDS011;3355;52.882;8.430;2022-07-01T05:28:10;9.43;;;7.57;;
6638;SDS011;3355;52.882;8.430;2022-07-01T05:30:36;8.93;;;6.83;;
6638;SDS011;3355;52.882;8.430;2022-07-01T05:33:03;8.57;;;6.77;;
6638;SDS011;3355;52.882;8.430;2022-07-01T05:35:30;7.80;;;6.90;;
6638;SDS011;3355;52.882;8.430;2022-07-01T05:37:58;8.23;;;6.20;;
6638;SDS011;3355;52.882;8.430;2022-07-01T05:40:25;9.37;;;7.97;;
6638;SDS011;3355;52.882;8.430;2022-07-01T05:42:52;12.73;;;8.70;;
6638;SDS011;3355;52.882;8.430;2022-07-01T05:45:19;9.20;;;7.77;;
6638;SDS011;3355;52.882;8.430;2022-07-01T05:47:45;10.80;;;8.57;;
6638;SDS011;3355;52.882;8.430;2022-07-01T05:50:12;10.07;;;8.43;;
6638;SDS011;3355;52.882;8.430;2022-07-01T05:52:41;11.20;;;9.40;;
6638;SDS011;3355;52.882;8.430;2022-07-01T05:55:09;13.90;;;9.80;;
6638;SDS011;3355;52.882;8.430;2022-07-01T05:57:36;11.57;;;9.37;;
6638;SDS011;3355;52.882;8.430;2022-07-01T06:00:03;12.07;;;8.60;;
6638;SDS011;3355;52.882;8.430;2022-07-01T06:02:30;12.23;;;9.53;;
6638;SDS011;3355;52.882;8.430;2022-07-01T06:04:57;12.60;;;8.80;;
6638;SDS011;3355;52.882;8.430;2022-07-01T06:07:25;13.00;;;11.30;;
6638;SDS011;3355;52.882;8.430;2022-07-01T06:09:53;11.53;;;9.97;;
6638;SDS011;3355;52.882;8.430;2022-07-01T06:12:19;13.37;;;10.77;;
6638;SDS011;3355;52.882;8.430;2022-07-01T06:14:46;10.30;;;9.20;;
6638;SDS011;3355;52.882;8.430;2022-07-01T06:17:13;12.17;;;10.37;;
6638;SDS011;3355;52.882;8.430;2022-07-01T06:19:40;12.63;;;10.23;;
6638;SDS011;3355;52.882;8.430;2022-07-01T06:22:06;13.27;;;10.47;;
6638;SDS011;3355;52.882;8.430;2022-07-01T06:24:33;11.07;;;9.40;;
6638;SDS011;3355;52.882;8.430;2022-07-01T06:27:01;14.63;;;10.90;;
6638;SDS011;3355;52.882;8.430;2022-07-01T06:29:29;11.87;;;10.13;;
6638;SDS011;3355;52.882;8.430;2022-07-01T06:31:56;12.30;;;11.00;;
6638;SDS011;3355;52.882;8.430;2022-07-01T06:34:24;12.63;;;10.00;;
6638;SDS011;3355;52.882;8.430;2022-07-01T06:36:50;13.93;;;12.00;;
6638;SDS011;3355;52.882;8.430;2022-07-01T06:39:17;12.37;;;10.90;;
6638;SDS011;3355;52.882;8.430;2022-07-01T06:41:44;12.13;;;10.93;;
6638;SDS011;3355;52.882;8.430;2022-07-01T06:44:12;13.70;;;12.23;;
6638;SDS011;3355;52.882;8.430;2022-07-01T06:46:39;14.70;;;12.27;;
6638;SDS011;3355;52.882;8.430;2022-07-01T06:49:06;14.60;;;11.93;;
6638;SDS011;3355;52.882;8.430;2022-07-01T06:51:32;17.57;;;12.63;;
6638;SDS011;3355;52.882;8.430;2022-07-01T06:53:59;12.40;;;11.10;;
6638;SDS011;3355;52.882;8.430;2022-07-01T06:56:26;13.20;;;11.00;;
6638;SDS011;3355;52.882;8.430;2022-07-01T06:58:53;15.47;;;12.20;;
6638;SDS011;3355;52.882;8.430;2022-07-01T07:01:21;14.50;;;12.47;;
6638;SDS011;3355;52.882;8.430;2022-07-01T07:03:49;14.33;;;12.13;;
6638;SDS011;3355;52.882;8.430;2022-07-01T07:06:16;15.27;;;12.13;;
6638;SDS011;3355;52.882;8.430;2022-07-01T07:08:42;15.93;;;13.17;;
6638;SDS011;3355;52.882;8.430;2022-07-01T07:11:09;17.83;;;13.23;;
6638;SDS011;3355;52.882;8.430;2022-07-01T07:13:36;15.07;;;13.07;;
6638;SDS011;3355;52.882;8.430;2022-07-01T07:16:03;17.80;;;12.23;;
6638;SDS011;3355;52.882;8.430;2022-07-01T07:18:32;12.63;;;10.63;;
6638;SDS011;3355;52.882;8.430;2022-07-01T07:20:58;17.13;;;13.00;;
6638;SDS011;3355;52.882;8.430;2022-07-01T07:23:25;14.17;;;12.60;;
6638;SDS011;3355;52.882;8.430;2022-07-01T07:25:52;17.10;;;13.60;;
6638;SDS011;3355;52.882;8.430;2022-07-01T07:28:19;18.60;;;13.13;;
6638;SDS011;3355;52.882;8.430;2022-07-01T07:30:45;16.83;;;14.60;;
6638;SDS011;3355;52.882;8.430;2022-07-01T07:33:12;15.90;;;13.77;;
6638;SDS011;3355;52.882;8.430;2022-07-01T07:35:40;17.40;;;15.27;;
6638;SDS011;3355;52.882;8.430;2022-07-01T07:38:08;17.53;;;14.10;;
6638;SDS011;3355;52.882;8.430;2022-07-01T07:40:35;15.53;;;13.50;;
6638;SDS011;3355;52.882;8.430;2022-07-01T07:43:02;18.70;;;14.30;;
6638;SDS011;3355;52.882;8.430;2022-07-01T07:45:32;17.70;;;14.70;;
6638;SDS011;3355;52.882;8.430;2022-07-01T07:47:58;18.03;;;14.80;;
6638;SDS011;3355;52.882;8.430;2022-07-01T07:50:25;16.23;;;14.30;;
6638;SDS011;3355;52.882;8.430;2022-07-01T07:52:54;17.90;;;14.40;;
6638;SDS011;3355;52.882;8.430;2022-07-01T07:55:20;17.63;;;14.80;;
6638;SDS011;3355;52.882;8.430;2022-07-01T07:57:47;17.00;;;14.60;;
6638;SDS011;3355;52.882;8.430;2022-07-01T08:00:14;15.50;;;13.70;;
6638;SDS011;3355;52.882;8.430;2022-07-01T08:02:42;17.23;;;14.43;;
6638;SDS011;3355;52.882;8.430;2022-07-01T08:05:09;15.53;;;13.37;;
6638;SDS011;3355;52.882;8.430;2022-07-01T08:07:36;18.10;;;14.80;;
6638;SDS011;3355;52.882;8.430;2022-07-01T08:10:07;18.50;;;15.57;;
6638;SDS011;3355;52.882;8.430;2022-07-01T08:12:35;19.73;;;15.40;;
6638;SDS011;3355;52.882;8.430;2022-07-01T08:15:02;18.20;;;15.60;;
6638;SDS011;3355;52.882;8.430;2022-07-01T08:17:29;21.70;;;15.90;;
6638;SDS011;3355;52.882;8.430;2022-07-01T08:19:56;17.53;;;13.70;;
6638;SDS011;3355;52.882;8.430;2022-07-01T08:22:23;17.00;;;15.17;;
6638;SDS011;3355;52.882;8.430;2022-07-01T08:24:50;14.97;;;12.83;;
6638;SDS011;3355;52.882;8.430;2022-07-01T08:27:19;14.40;;;12.50;;
6638;SDS011;3355;52.882;8.430;2022-07-01T08:29:45;18.13;;;14.40;;
6638;SDS011;3355;52.882;8.430;2022-07-01T08:32:12;16.70;;;13.80;;
6638;SDS011;3355;52.882;8.430;2022-07-01T08:34:39;18.27;;;13.77;;
6638;SDS011;3355;52.882;8.430;2022-07-01T08:37:06;20.40;;;14.40;;
6638;SDS011;3355;52.882;8.430;2022-07-01T08:39:32;18.27;;;14.87;;
6638;SDS011;3355;52.882;8.430;2022-07-01T08:41:59;17.80;;;14.50;;
6638;SDS011;3355;52.882;8.430;2022-07-01T08:44:27;20.80;;;13.40;;
6638;SDS011;3355;52.882;8.430;2022-07-01T08:46:54;19.57;;;13.90;;
6638;SDS011;3355;52.882;8.430;2022-07-01T08:49:21;15.77;;;12.30;;
6638;SDS011;3355;52.882;8.430;2022-07-01T08:51:48;15.63;;;13.07;;
6638;SDS011;3355;52.882;8.430;2022-07-01T08:54:15;15.60;;;12.50;;
6638;SDS011;3355;52.882;8.430;2022-07-01T08:56:42;14.37;;;12.87;;
6638;SDS011;3355;52.882;8.430;2022-07-01T08:59:10;14.60;;;12.63;;
6638;SDS011;3355;52.882;8.430;2022-07-01T09:01:40;17.13;;;13.97;;
6638;SDS011;3355;52.882;8.430;2022-07-01T09:04:14;16.27;;;13.40;;
6638;SDS011;3355;52.882;8.430;2022-07-01T09:06:42;17.30;;;12.47;;
6638;SDS011;3355;52.882;8.430;2022-07-01T09:09:10;18.50;;;13.70;;
6638;SDS011;3355;52.882;8.430;2022-07-01T09:11:43;16.87;;;15.00;;
6638;SDS011;3355;52.882;8.430;2022-07-01T09:14:11;17.03;;;14.37;;
6638;SDS011;3355;52.882;8.430;2022-07-01T09:16:41;16.23;;;13.93;;
6638;SDS011;3355;52.882;8.430;2022-07-01T09:19:09;15.90;;;14.20;;
6638;SDS011;3355;52.882;8.430;2022-07-01T09:21:36;16.17;;;13.00;;
6638;SDS011;3355;52.882;8.430;2022-07-01T09:24:04;15.40;;;13.50;;
6638;SDS011;3355;52.882;8.430;2022-07-01T09:26:50;17.07;;;14.23;;
6638;SDS011;3355;52.882;8.430;2022-07-01T09:29:18;15.80;;;12.80;;
6638;SDS011;3355;52.882;8.430;2022-07-01T09:31:48;15.57;;;13.90;;
6638;SDS011;3355;52.882;8.430;2022-07-01T09:34:15;16.63;;;13.90;;
6638;SDS011;3355;52.882;8.430;2022-07-01T09:36:46;15.50;;;13.90;;
6638;SDS011;3355;52.882;8.430;2022-07-01T09:39:18;15.40;;;13.47;;
6638;SDS011;3355;52.882;8.430;2022-07-01T09:41:44;14.83;;;13.23;;
6638;SDS011;3355;52.882;8.430;2022-07-01T09:44:11;15.73;;;13.50;;
6638;SDS011;3355;52.882;8.430;2022-07-01T09:46:39;15.57;;;13.80;;
6638;SDS011;3355;52.882;8.430;2022-07-01T09:49:19;16.10;;;14.10;;
6638;SDS011;3355;52.882;8.430;2022-07-01T09:51:46;15.33;;;13.73;;
6638;SDS011;3355;52.882;8.430;2022-07-01T09:54:15;14.70;;;13.20;;
6638;SDS011;3355;52.882;8.430;2022-07-01T09:56:43;17.77;;;15.63;;
6638;SDS011;3355;52.882;8.430;2022-07-01T09:59:10;17.60;;;14.60;;
6638;SDS011;3355;52.882;8.430;2022-07-01T10:01:38;20.23;;;15.47;;
6638;SDS011;3355;52.882;8.430;2022-07-01T10:04:07;16.73;;;15.03;;
6638;SDS011;3355;52.882;8.430;2022-07-01T10:09:37;16.40;;;13.73;;
6638;SDS011;3355;52.882;8.430;2022-07-01T10:12:22;13.63;;;12.23;;
6638;SDS011;3355;52.882;8.430;2022-07-01T10:14:58;14.77;;;13.20;;
6638;SDS011;3355;52.882;8.430;2022-07-01T10:17:27;16.03;;;13.73;;
6638;SDS011;3355;52.882;8.430;2022-07-01T10:19:57;15.57;;;12.60;;
6638;SDS011;3355;52.882;8.430;2022-07-01T10:22:34;15.60;;;13.90;;
6638;SDS011;3355;52.882;8.430;2022-07-01T10:30:48;16.03;;;14.00;;
6638;SDS011;3355;52.882;8.430;2022-07-01T10:33:27;14.90;;;13.40;;
6638;SDS011;3355;52.882;8.430;2022-07-01T10:36:12;16.60;;;14.13;;
6638;SDS011;3355;52.882;8.430;2022-07-01T10:42:01;17.10;;;13.67;;
6638;SDS011;3355;52.882;8.430;2022-07-01T10:44:30;15.97;;;14.27;;
6638;SDS011;3355;52.882;8.430;2022-07-01T10:47:02;14.23;;;12.73;;
6638;SDS011;3355;52.882;8.430;2022-07-01T10:52:23;14.17;;;12.30;;
6638;SDS011;3355;52.882;8.430;2022-07-01T10:54:52;15.17;;;13.10;;
6638;SDS011;3355;52.882;8.430;2022-07-01T10:57:22;15.50;;;13.93;;
6638;SDS011;3355;52.882;8.430;2022-07-01T10:59:53;16.03;;;14.33;;
6638;SDS011;3355;52.882;8.430;2022-07-01T11:02:23;16.10;;;14.40;;
6638;SDS011;3355;52.882;8.430;2022-07-01T11:04:51;14.20;;;12.80;;
6638;SDS011;3355;52.882;8.430;2022-07-01T11:07:20;12.50;;;11.27;;
6638;SDS011;3355;52.882;8.430;2022-07-01T11:09:48;15.37;;;12.87;;
6638;SDS011;3355;52.882;8.430;2022-07-01T11:12:15;14.20;;;12.57;;
6638;SDS011;3355;52.882;8.430;2022-07-01T11:14:42;14.50;;;12.83;;
6638;SDS011;3355;52.882;8.430;2022-07-01T11:17:09;11.97;;;10.77;;
6638;SDS011;3355;52.882;8.430;2022-07-01T11:19:36;11.67;;;10.37;;
6638;SDS011;3355;52.882;8.430;2022-07-01T11:22:03;12.97;;;10.87;;
6638;SDS011;3355;52.882;8.430;2022-07-01T11:24:31;12.33;;;10.80;;
6638;SDS011;3355;52.882;8.430;2022-07-01T11:27:00;13.23;;;10.50;;
6638;SDS011;3355;52.882;8.430;2022-07-01T11:29:32;12.37;;;10.93;;
6638;SDS011;3355;52.882;8.430;2022-07-01T11:31:59;11.50;;;10.30;;
6638;SDS011;3355;52.882;8.430;2022-07-01T11:34:26;13.80;;;11.33;;
6638;SDS011;3355;52.882;8.430;2022-07-01T11:36:53;9.57;;;8.67;;
6638;SDS011;3355;52.882;8.430;2022-07-01T11:39:50;10.40;;;9.23;;
6638;SDS011;3355;52.882;8.430;2022-07-01T11:42:29;9.50;;;8.47;;
6638;SDS011;3355;52.882;8.430;2022-07-01T11:44:56;11.23;;;9.83;;
6638;SDS011;3355;52.882;8.430;2022-07-01T11:47:23;9.97;;;9.00;;
6638;SDS011;3355;52.882;8.430;2022-07-01T11:49:51;10.00;;;9.00;;
6638;SDS011;3355;52.882;8.430;2022-07-01T11:52:19;11.60;;;10.40;;
6638;SDS011;3355;52.882;8.430;2022-07-01T11:54:47;12.23;;;10.93;;
6638;SDS011;3355;52.882;8.430;2022-07-01T11:57:17;11.03;;;9.80;;
6638;SDS011;3355;52.882;8.430;2022-07-01T11:59:46;10.63;;;9.30;;
6638;SDS011;3355;52.882;8.430;2022-07-01T12:02:14;11.43;;;9.40;;
6638;SDS011;3355;52.882;8.430;2022-07-01T12:04:42;11.37;;;10.13;;
6638;SDS011;3355;52.882;8.430;2022-07-01T12:07:09;11.30;;;10.20;;
6638;SDS011;3355;52.882;8.430;2022-07-01T12:09:37;10.00;;;9.00;;
6638;SDS011;3355;52.882;8.430;2022-07-01T12:12:05;11.33;;;10.33;;
6638;SDS011;3355;52.882;8.430;2022-07-01T12:14:33;11.60;;;10.40;;
6638;SDS011;3355;52.882;8.430;2022-07-01T12:17:03;11.77;;;8.90;;
6638;SDS011;3355;52.882;8.430;2022-07-01T12:19:37;10.50;;;8.80;;
6638;SDS011;3355;52.882;8.430;2022-07-01T12:22:05;10.73;;;8.00;;
6638;SDS011;3355;52.882;8.430;2022-07-01T12:24:34;11.17;;;9.47;;
6638;SDS011;3355;52.882;8.430;2022-07-01T12:27:02;10.00;;;9.00;;
6638;SDS011;3355;52.882;8.430;2022-07-01T12:29:30;9.47;;;8.47;;
6638;SDS011;3355;52.882;8.430;2022-07-01T12:32:16;10.43;;;9.43;;
6638;SDS011;3355;52.882;8.430;2022-07-01T12:34:48;11.00;;;9.83;;
6638;SDS011;3355;52.882;8.430;2022-07-01T12:37:17;9.57;;;8.40;;
6638;SDS011;3355;52.882;8.430;2022-07-01T12:39:45;9.50;;;8.60;;
6638;SDS011;3355;52.882;8.430;2022-07-01T12:42:20;9.07;;;8.17;;
6638;SDS011;3355;52.882;8.430;2022-07-01T12:44:51;7.87;;;6.70;;
6638;SDS011;3355;52.882;8.430;2022-07-01T12:47:23;8.60;;;7.80;;
6638;SDS011;3355;52.882;8.430;2022-07-01T12:52:38;9.80;;;8.90;;
6638;SDS011;3355;52.882;8.430;2022-07-01T12:55:16;8.47;;;7.50;;
6638;SDS011;3355;52.882;8.430;2022-07-01T12:57:48;7.77;;;6.97;;
6638;SDS011;3355;52.882;8.430;2022-07-01T13:00:17;8.70;;;7.87;;
6638;SDS011;3355;52.882;8.430;2022-07-01T13:15:51;8.90;;;6.97;;
6638;SDS011;3355;52.882;8.430;2022-07-01T13:18:18;7.13;;;6.47;;
6638;SDS011;3355;52.882;8.430;2022-07-01T13:20:45;7.80;;;6.67;;
6638;SDS011;3355;52.882;8.430;2022-07-01T13:23:12;8.37;;;7.47;;
6638;SDS011;3355;52.882;8.430;2022-07-01T13:25:39;7.83;;;5.57;;
6638;SDS011;3355;52.882;8.430;2022-07-01T13:28:06;8.77;;;7.50;;
6638;SDS011;3355;52.882;8.430;2022-07-01T13:30:33;6.30;;;5.37;;
6638;SDS011;3355;52.882;8.430;2022-07-01T13:33:03;7.13;;;6.07;;
6638;SDS011;3355;52.882;8.430;2022-07-01T13:35:30;7.13;;;6.00;;
6638;SDS011;3355;52.882;8.430;2022-07-01T13:37:57;10.40;;;7.13;;
6638;SDS011;3355;52.882;8.430;2022-07-01T13:40:24;7.00;;;6.30;;
6638;SDS011;3355;52.882;8.430;2022-07-01T13:42:51;8.97;;;6.63;;
6638;SDS011;3355;52.882;8.430;2022-07-01T13:45:18;12.50;;;6.93;;
6638;SDS011;3355;52.882;8.430;2022-07-01T13:47:45;7.60;;;6.70;;
6638;SDS011;3355;52.882;8.430;2022-07-01T13:50:13;7.97;;;6.57;;
6638;SDS011;3355;52.882;8.430;2022-07-01T13:52:44;10.10;;;7.67;;
6638;SDS011;3355;52.882;8.430;2022-07-01T13:55:11;9.10;;;7.50;;
6638;SDS011;3355;52.882;8.430;2022-07-01T13:57:38;7.40;;;6.60;;
6638;SDS011;3355;52.882;8.430;2022-07-01T14:00:05;6.90;;;5.53;;
6638;SDS011;3355;52.882;8.430;2022-07-01T14:02:33;8.10;;;6.43;;
6638;SDS011;3355;52.882;8.430;2022-07-01T14:05:00;7.17;;;6.30;;
6638;SDS011;3355;52.882;8.430;2022-07-01T14:07:29;8.07;;;7.27;;
6638;SDS011;3355;52.882;8.430;2022-07-01T14:09:57;8.70;;;7.80;;
6638;SDS011;3355;52.882;8.430;2022-07-01T14:12:24;7.03;;;6.00;;
6638;SDS011;3355;52.882;8.430;2022-07-01T14:14:51;6.47;;;5.63;;
6638;SDS011;3355;52.882;8.430;2022-07-01T14:17:19;8.43;;;7.57;;
6638;SDS011;3355;52.882;8.430;2022-07-01T14:19:46;8.00;;;7.20;;
6638;SDS011;3355;52.882;8.430;2022-07-01T14:22:13;8.10;;;7.30;;
6638;SDS011;3355;52.882;8.430;2022-07-01T14:24:42;9.70;;;8.80;;
6638;SDS011;3355;52.882;8.430;2022-07-01T14:27:09;8.90;;;8.00;;
6638;SDS011;3355;52.882;8.430;2022-07-01T14:29:36;9.77;;;6.77;;
6638;SDS011;3355;52.882;8.430;2022-07-01T14:32:04;7.73;;;6.63;;
6638;SDS011;3355;52.882;8.430;2022-07-01T14:34:37;8.40;;;7.00;;
6638;SDS011;3355;52.882;8.430;2022-07-01T14:37:04;7.13;;;6.43;;
6638;SDS011;3355;52.882;8.430;2022-07-01T14:39:31;9.70;;;6.27;;
6638;SDS011;3355;52.882;8.430;2022-07-01T14:41:59;8.80;;;7.90;;
6638;SDS011;3355;52.882;8.430;2022-07-01T14:44:30;7.50;;;6.37;;
6638;SDS011;3355;52.882;8.430;2022-07-01T14:46:57;8.23;;;7.37;;
6638;SDS011;3355;52.882;8.430;2022-07-01T14:49:24;7.37;;;6.57;;
6638;SDS011;3355;52.882;8.430;2022-07-01T15:02:03;8.87;;;6.20;;
6638;SDS011;3355;52.882;8.430;2022-07-01T15:04:30;9.33;;;6.70;;
6638;SDS011;3355;52.882;8.430;2022-07-01T15:06:57;6.40;;;5.23;;
6638;SDS011;3355;52.882;8.430;2022-07-01T15:09:25;7.80;;;7.20;;
6638;SDS011;3355;52.882;8.430;2022-07-01T15:11:52;7.43;;;6.73;;
6638;SDS011;3355;52.882;8.430;2022-07-01T15:14:20;7.60;;;6.83;;
6638;SDS011;3355;52.882;8.430;2022-07-01T15:16:47;7.30;;;6.60;;
6638;SDS011;3355;52.882;8.430;2022-07-01T15:19:16;8.87;;;6.70;;
6638;SDS011;3355;52.882;8.430;2022-07-01T15:21:43;7.90;;;7.20;;
6638;SDS011;3355;52.882;8.430;2022-07-01T15:24:10;7.40;;;6.57;;
6638;SDS011;3355;52.882;8.430;2022-07-01T15:26:37;6.60;;;5.27;;
6638;SDS011;3355;52.882;8.430;2022-07-01T15:29:04;7.63;;;6.70;;
6638;SDS011;3355;52.882;8.430;2022-07-01T15:31:30;7.10;;;6.23;;
6638;SDS011;3355;52.882;8.430;2022-07-01T15:33:57;7.13;;;6.50;;
6638;SDS011;3355;52.882;8.430;2022-07-01T15:36:26;6.80;;;6.10;;
6638;SDS011;3355;52.882;8.430;2022-07-01T15:38:53;6.53;;;5.93;;
6638;SDS011;3355;52.882;8.430;2022-07-01T15:41:23;7.97;;;7.17;;
6638;SDS011;3355;52.882;8.430;2022-07-01T15:43:50;7.33;;;5.93;;
6638;SDS011;3355;52.882;8.430;2022-07-01T15:46:20;8.30;;;7.40;;
6638;SDS011;3355;52.882;8.430;2022-07-01T15:48:48;7.13;;;6.20;;
6638;SDS011;3355;52.882;8.430;2022-07-01T15:51:16;5.70;;;5.20;;